Time;durP1;ratioP1;P1;durP2;ratioP2;P2;SDS_P1;SDS_P2;PMS_P1;PMS_P2;Temp;Humidity;BMP_temperature;BMP_pressure;BME280_temperature;BME280_humidity;BME280_pressure;Samples;Min_cycle;Max_cycle;Signal;HPM_P1;HPM_P2
2023/03/28 00:01:53;;;;;;;5.73;3.10;;;6.70;98.70;;;;;;5034120;28;20182;-75
2023/03/28 00:04:21;;;;;;;3.50;3.20;;;6.70;98.60;;;;;;5045737;28;20191;-75
2023/03/28 00:06:49;;;;;;;3.57;2.70;;;6.70;98.70;;;;;;5048122;28;20651;-79
2023/03/28 00:09:16;;;;;;;4.95;3.08;;;6.70;98.60;;;;;;5051860;28;20421;-75
2023/03/28 00:11:43;;;;;;;4.23;3.23;;;6.70;98.70;;;;;;5052274;28;20178;-75
2023/03/28 00:14:08;;;;;;;4.90;2.97;;;6.70;98.70;;;;;;5050545;28;20587;-74
2023/03/28 00:16:38;;;;;;;5.60;5.10;;;6.70;98.90;;;;;;5052419;28;20384;-75
2023/03/28 00:19:14;;;;;;;5.60;3.23;;;6.70;99.00;;;;;;5051683;28;20500;-75
2023/03/28 00:21:45;;;;;;;10.00;3.37;;;6.70;98.90;;;;;;5044417;28;20755;-75
2023/03/28 00:24:13;;;;;;;3.10;2.80;;;6.70;98.90;;;;;;5045068;28;20500;-75
2023/03/28 00:26:40;;;;;;;4.40;2.95;;;6.70;98.90;;;;;;5037487;28;20970;-75
2023/03/28 00:29:10;;;;;;;5.00;2.97;;;6.70;98.90;;;;;;5031584;28;20171;-75
2023/03/28 00:31:39;;;;;;;3.25;2.88;;;6.80;99.10;;;;;;5031143;28;20410;-75
2023/03/28 00:34:05;;;;;;;3.22;2.90;;;6.70;99.10;;;;;;5029787;28;20177;-76
2023/03/28 00:36:34;;;;;;;5.50;3.00;;;6.70;98.90;;;;;;5031128;28;20182;-76
2023/03/28 00:39:04;;;;;;;3.73;3.43;;;6.70;98.80;;;;;;5030355;28;20432;-76
2023/03/28 00:41:31;;;;;;;7.78;3.72;;;6.70;98.90;;;;;;5027882;28;20487;-75
2023/03/28 00:43:58;;;;;;;6.57;3.95;;;6.70;98.80;;;;;;4994051;28;20176;-76
2023/03/28 00:46:40;;;;;;;4.33;3.70;;;6.70;99.00;;;;;;5010245;28;20202;-76
2023/03/28 00:49:12;;;;;;;7.70;3.93;;;6.60;98.90;;;;;;5009092;28;20438;-76
2023/03/28 00:51:43;;;;;;;7.23;3.87;;;6.60;99.00;;;;;;4995010;28;20432;-75
2023/03/28 00:54:13;;;;;;;7.50;3.95;;;6.60;99.20;;;;;;5012019;28;20487;-76
2023/03/28 00:56:42;;;;;;;5.50;3.37;;;6.60;99.30;;;;;;5012880;28;20194;-75
2023/03/28 00:59:13;;;;;;;5.90;3.90;;;6.50;99.10;;;;;;5016420;28;20468;-76
2023/03/28 01:01:39;;;;;;;4.03;3.73;;;6.50;99.20;;;;;;5032341;28;20572;-76
2023/03/28 01:04:05;;;;;;;7.47;3.87;;;6.50;99.10;;;;;;5006807;28;20419;-76
2023/03/28 01:06:39;;;;;;;3.88;3.50;;;6.50;99.10;;;;;;4994813;28;20287;-75
2023/03/28 01:09:07;;;;;;;7.37;4.70;;;6.40;99.30;;;;;;4993882;28;20613;-76
2023/03/28 01:11:40;;;;;;;9.65;3.72;;;6.40;99.50;;;;;;5019573;28;20486;-76
2023/03/28 01:14:12;;;;;;;7.75;4.50;;;6.40;99.70;;;;;;5030961;28;20155;-76
2023/03/28 01:16:40;;;;;;;8.65;4.35;;;6.40;99.90;;;;;;5014386;28;20182;-75
2023/03/28 01:19:25;;;;;;;7.55;4.95;;;6.40;99.90;;;;;;5032893;28;20174;-76
2023/03/28 01:22:28;;;;;;;7.43;4.63;;;6.40;99.90;;;;;;5035047;28;20326;-79
2023/03/28 01:25:08;;;;;;;4.27;3.90;;;6.40;99.90;;;;;;5035079;28;20401;-79
2023/03/28 01:27:44;;;;;;;7.47;4.37;;;6.40;99.90;;;;;;5035761;28;20495;-76
2023/03/28 01:30:28;;;;;;;8.63;4.60;;;6.40;99.90;;;;;;5026633;28;20426;-76
2023/03/28 01:33:17;;;;;;;4.87;4.20;;;6.40;99.90;;;;;;5015238;28;20407;-78
2023/03/28 01:35:56;;;;;;;5.63;4.40;;;6.40;99.90;;;;;;5015532;28;20440;-76
2023/03/28 01:38:32;;;;;;;7.70;4.60;;;6.40;99.80;;;;;;5028856;28;20181;-75
2023/03/28 01:41:03;;;;;;;5.07;4.47;;;6.40;99.90;;;;;;4985731;28;20530;-76
2023/03/28 01:43:38;;;;;;;5.00;4.17;;;6.40;99.90;;;;;;4998010;28;20421;-76
2023/03/28 01:46:13;;;;;;;5.63;4.93;;;6.40;99.90;;;;;;4997222;28;20457;-76
2023/03/28 01:49:00;;;;;;;7.47;4.60;;;6.30;99.90;;;;;;5016540;28;20758;-76
2023/03/28 01:51:44;;;;;;;7.27;4.37;;;6.40;99.90;;;;;;5017593;28;20746;-76
2023/03/28 01:54:23;;;;;;;6.57;4.38;;;6.40;99.90;;;;;;5011230;28;20433;-78
2023/03/28 01:57:06;;;;;;;10.55;5.13;;;6.40;99.90;;;;;;5002999;28;20189;-76
2023/03/28 01:59:41;;;;;;;6.30;4.20;;;6.40;99.90;;;;;;5000070;28;20185;-76
2023/03/28 02:02:23;;;;;;;7.87;4.53;;;6.40;99.90;;;;;;4996685;28;20627;-76
2023/03/28 02:04:52;;;;;;;7.95;4.70;;;6.40;99.90;;;;;;5015230;28;20719;-75
2023/03/28 02:07:21;;;;;;;7.70;5.03;;;6.40;99.90;;;;;;4996648;28;20207;-76
2023/03/28 02:09:48;;;;;;;8.50;4.50;;;6.30;99.90;;;;;;5015784;28;20519;-76
2023/03/28 02:12:32;;;;;;;7.57;5.00;;;6.40;99.90;;;;;;5004961;28;21072;-75
2023/03/28 02:15:03;;;;;;;7.47;5.20;;;6.30;99.90;;;;;;5034133;28;20392;-77
2023/03/28 02:17:31;;;;;;;6.65;4.32;;;6.30;99.90;;;;;;5017297;28;20253;-76
2023/03/28 02:20:06;;;;;;;5.80;4.10;;;6.30;99.90;;;;;;5034131;28;20260;-79
2023/03/28 02:22:59;;;;;;;7.50;4.45;;;6.20;99.90;;;;;;5034635;28;20779;-75
2023/03/28 02:25:25;;;;;;;5.82;4.63;;;6.30;99.90;;;;;;5025671;28;20188;-76
2023/03/28 02:27:56;;;;;;;8.37;5.07;;;6.20;99.90;;;;;;5014718;28;20285;-76
2023/03/28 02:30:22;;;;;;;7.40;4.83;;;6.20;99.90;;;;;;5014297;28;20409;-76
2023/03/28 02:32:49;;;;;;;5.45;4.90;;;6.10;99.90;;;;;;4997182;28;20435;-76
2023/03/28 02:35:18;;;;;;;4.93;4.40;;;6.10;99.90;;;;;;5013407;28;20182;-77
2023/03/28 02:38:14;;;;;;;8.13;5.23;;;6.10;99.90;;;;;;4996618;28;20190;-76
2023/03/28 02:40:57;;;;;;;6.82;4.75;;;6.20;99.90;;;;;;5015151;28;20761;-76
2023/03/28 02:44:09;;;;;;;9.48;4.90;;;6.10;99.90;;;;;;4996800;28;20608;-76
2023/03/28 02:47:02;;;;;;;5.78;4.82;;;6.00;99.90;;;;;;4953649;29;20620;-76
2023/03/28 02:49:51;;;;;;;4.68;4.05;;;6.00;99.90;;;;;;4953658;29;20634;-76
2023/03/28 02:52:24;;;;;;;6.22;5.00;;;6.00;99.90;;;;;;5001523;28;20206;-76
2023/03/28 02:55:13;;;;;;;7.93;4.60;;;5.90;99.90;;;;;;4980116;28;20277;-75
2023/03/28 02:57:52;;;;;;;7.20;4.30;;;5.90;99.90;;;;;;5022976;28;20187;-76
2023/03/28 03:00:19;;;;;;;10.05;4.68;;;5.80;99.90;;;;;;5015546;28;20155;-76
2023/03/28 03:02:48;;;;;;;6.03;5.00;;;5.80;99.90;;;;;;5033968;28;20643;-75
2023/03/28 03:05:14;;;;;;;6.63;4.80;;;5.90;99.90;;;;;;5028118;28;20642;-76
2023/03/28 03:07:41;;;;;;;7.90;4.75;;;5.80;99.90;;;;;;5032386;28;20198;-76
2023/03/28 03:10:10;;;;;;;10.45;5.50;;;5.90;99.90;;;;;;5032945;28;20224;-76
2023/03/28 03:12:36;;;;;;;13.63;5.63;;;5.80;99.90;;;;;;5033695;28;20174;-76
2023/03/28 03:15:04;;;;;;;6.28;5.18;;;5.80;99.90;;;;;;5031532;28;20167;-77
2023/03/28 03:17:30;;;;;;;7.00;5.40;;;5.80;99.90;;;;;;5033553;28;20171;-76
2023/03/28 03:19:56;;;;;;;6.15;4.72;;;5.90;99.90;;;;;;5033551;28;20175;-76
2023/03/28 03:22:22;;;;;;;9.87;5.83;;;5.90;99.90;;;;;;5032462;28;20182;-75
2023/03/28 03:24:49;;;;;;;5.05;4.57;;;5.90;99.90;;;;;;5010675;28;20175;-75
2023/03/28 03:27:17;;;;;;;7.70;4.63;;;5.90;99.90;;;;;;5020468;28;20210;-76
2023/03/28 03:29:43;;;;;;;7.32;5.28;;;5.90;99.90;;;;;;5031207;28;20240;-76
2023/03/28 03:32:09;;;;;;;9.60;5.77;;;5.90;99.90;;;;;;5032467;28;20175;-76
2023/03/28 03:34:35;;;;;;;9.80;5.60;;;6.00;99.90;;;;;;5015954;28;20185;-76
2023/03/28 03:37:03;;;;;;;11.68;5.60;;;5.90;99.90;;;;;;5031874;28;20189;-79
2023/03/28 03:39:29;;;;;;;12.98;6.32;;;6.00;99.90;;;;;;5032999;28;20179;-76
2023/03/28 03:41:55;;;;;;;10.18;5.53;;;6.00;99.90;;;;;;5031626;28;20222;-75
2023/03/28 03:44:21;;;;;;;10.15;5.82;;;6.10;99.90;;;;;;5014767;28;20179;-75
2023/03/28 03:46:48;;;;;;;9.30;5.30;;;6.00;99.90;;;;;;5032870;28;20202;-75
2023/03/28 03:49:14;;;;;;;10.77;7.10;;;6.00;99.90;;;;;;5031268;28;20602;-75
2023/03/28 03:51:39;;;;;;;8.90;7.33;;;6.00;99.90;;;;;;5032839;28;20178;-75
2023/03/28 03:54:05;;;;;;;8.33;6.33;;;6.00;99.90;;;;;;5032091;28;20836;-76
2023/03/28 03:56:32;;;;;;;9.03;6.57;;;6.00;99.90;;;;;;5014856;28;20631;-75
2023/03/28 03:58:57;;;;;;;9.68;4.32;;;6.00;99.90;;;;;;5032815;28;20510;-75
2023/03/28 04:01:24;;;;;;;7.53;4.77;;;5.90;99.90;;;;;;5031998;28;20175;-75
2023/03/28 04:03:50;;;;;;;6.88;4.57;;;5.90;99.90;;;;;;5007240;28;20206;-75
2023/03/28 04:06:17;;;;;;;6.75;6.15;;;5.90;99.90;;;;;;4994639;28;20326;-76
2023/03/28 04:08:43;;;;;;;6.55;5.03;;;5.80;99.90;;;;;;5012941;28;20561;-76
2023/03/28 04:11:09;;;;;;;10.60;6.47;;;5.80;99.90;;;;;;5011984;28;20257;-77
2023/03/28 04:13:35;;;;;;;8.15;5.60;;;5.70;99.90;;;;;;4995449;28;20179;-76
2023/03/28 04:16:01;;;;;;;7.68;5.90;;;5.70;99.90;;;;;;5012317;28;20568;-79
2023/03/28 04:18:28;;;;;;;11.90;5.97;;;5.60;99.90;;;;;;5012707;28;20167;-76
2023/03/28 04:20:57;;;;;;;6.03;5.35;;;5.60;99.90;;;;;;5024479;28;20182;-76
2023/03/28 04:23:24;;;;;;;9.90;5.35;;;5.60;99.90;;;;;;5012211;28;20162;-76
2023/03/28 04:25:57;;;;;;;5.60;4.88;;;5.50;99.90;;;;;;5013775;28;20522;-76
2023/03/28 04:28:24;;;;;;;9.10;5.47;;;5.50;99.90;;;;;;4999689;28;20209;-77
2023/03/28 04:30:56;;;;;;;12.15;6.38;;;5.40;99.90;;;;;;5014955;28;20224;-75
2023/03/28 04:33:27;;;;;;;7.97;5.40;;;5.40;99.90;;;;;;5031721;28;20187;-76
2023/03/28 04:36:01;;;;;;;9.02;5.60;;;5.30;99.90;;;;;;4986865;28;20258;-76
2023/03/28 04:38:35;;;;;;;10.07;6.03;;;5.30;99.90;;;;;;5011418;28;20632;-76
2023/03/28 04:41:03;;;;;;;11.05;5.65;;;5.20;99.90;;;;;;5012218;28;20186;-76
2023/03/28 04:43:30;;;;;;;11.02;6.25;;;5.30;99.90;;;;;;5012178;28;20210;-76
2023/03/28 04:45:57;;;;;;;8.00;6.30;;;5.30;99.90;;;;;;5012378;28;22129;-76
2023/03/28 04:48:24;;;;;;;7.80;6.28;;;5.30;99.90;;;;;;5011457;28;20912;-76
2023/03/28 04:50:50;;;;;;;13.30;8.18;;;5.30;99.90;;;;;;5012536;28;20209;-76
2023/03/28 04:53:16;;;;;;;12.20;6.47;;;5.30;99.90;;;;;;5011791;28;20604;-76
2023/03/28 04:55:47;;;;;;;9.77;7.35;;;5.40;99.90;;;;;;5011937;28;20492;-76
2023/03/28 04:58:14;;;;;;;11.45;6.75;;;5.40;99.90;;;;;;5033701;28;20171;-75
2023/03/28 05:00:41;;;;;;;10.23;6.47;;;5.40;99.90;;;;;;5016395;28;20193;-75
2023/03/28 05:03:17;;;;;;;12.90;7.13;;;5.40;99.90;;;;;;5016289;28;20498;-78
2023/03/28 05:05:44;;;;;;;11.57;7.00;;;5.50;99.90;;;;;;5036665;28;20158;-76
2023/03/28 05:08:11;;;;;;;9.70;6.68;;;5.50;99.90;;;;;;5035767;28;20642;-75
2023/03/28 05:10:38;;;;;;;12.20;7.35;;;5.50;99.90;;;;;;5028127;28;20193;-75
2023/03/28 05:13:04;;;;;;;11.68;6.93;;;5.50;99.90;;;;;;5030267;28;20178;-78
2023/03/28 05:15:30;;;;;;;10.15;6.85;;;5.50;99.90;;;;;;5016794;28;20182;-75
2023/03/28 05:17:57;;;;;;;8.33;7.40;;;5.40;99.90;;;;;;5016533;28;20171;-75
2023/03/28 05:20:23;;;;;;;8.57;6.57;;;5.50;99.90;;;;;;5000093;28;20397;-75
2023/03/28 05:22:49;;;;;;;9.00;6.05;;;5.40;99.90;;;;;;5002852;28;20269;-75
2023/03/28 05:25:15;;;;;;;8.20;7.07;;;5.40;99.90;;;;;;4996640;28;20204;-75
2023/03/28 05:27:40;;;;;;;7.83;6.73;;;5.40;99.90;;;;;;5031672;28;20202;-75
2023/03/28 05:30:08;;;;;;;8.03;6.70;;;5.30;99.90;;;;;;5034550;28;20182;-78
2023/03/28 05:32:34;;;;;;;10.18;6.45;;;5.40;99.90;;;;;;5025483;28;20182;-75
2023/03/28 05:35:00;;;;;;;8.60;7.18;;;5.40;99.90;;;;;;5015563;28;20167;-75
2023/03/28 05:37:26;;;;;;;9.57;6.63;;;5.30;99.90;;;;;;5015233;28;20776;-75
2023/03/28 05:39:52;;;;;;;7.70;6.85;;;5.40;99.90;;;;;;4997561;28;20218;-75
2023/03/28 05:42:18;;;;;;;7.00;6.30;;;5.50;99.90;;;;;;5014653;28;20219;-75
2023/03/28 05:44:44;;;;;;;11.90;7.10;;;5.50;99.90;;;;;;4997972;28;20175;-75
2023/03/28 05:47:09;;;;;;;8.73;7.90;;;5.40;99.90;;;;;;5014888;28;20204;-78
2023/03/28 05:49:35;;;;;;;9.30;8.30;;;5.50;99.90;;;;;;5015435;28;20171;-75
2023/03/28 05:52:01;;;;;;;8.60;7.40;;;5.50;99.90;;;;;;5015264;28;20366;-75
2023/03/28 05:54:26;;;;;;;9.83;8.23;;;5.50;99.90;;;;;;5014322;28;20190;-75
2023/03/28 05:56:52;;;;;;;8.33;7.53;;;5.50;99.90;;;;;;4981316;28;20187;-76
2023/03/28 05:59:18;;;;;;;10.03;8.17;;;5.60;99.90;;;;;;5015302;28;20530;-76
2023/03/28 06:01:45;;;;;;;10.48;7.78;;;5.60;99.90;;;;;;5020537;28;20179;-76
2023/03/28 06:04:11;;;;;;;11.20;9.18;;;5.60;99.90;;;;;;5033539;28;20503;-79
2023/03/28 06:06:37;;;;;;;8.82;7.57;;;5.60;99.90;;;;;;5027999;28;20195;-75
2023/03/28 06:09:03;;;;;;;13.80;9.20;;;5.70;99.90;;;;;;5014417;28;20622;-77
2023/03/28 06:11:29;;;;;;;11.32;8.40;;;5.60;99.90;;;;;;5036906;28;20437;-76
2023/03/28 06:13:55;;;;;;;10.63;8.10;;;5.60;99.90;;;;;;5035088;28;20178;-76
2023/03/28 06:16:20;;;;;;;10.67;9.57;;;5.70;99.90;;;;;;4996807;28;20178;-76
2023/03/28 06:18:46;;;;;;;18.10;11.67;;;5.60;99.90;;;;;;5009055;28;20435;-76
2023/03/28 06:21:12;;;;;;;11.53;8.90;;;5.60;99.90;;;;;;5030868;28;20174;-76
2023/03/28 06:23:38;;;;;;;12.07;9.70;;;5.60;99.90;;;;;;5015812;28;20258;-75
2023/03/28 06:26:04;;;;;;;10.45;8.60;;;5.70;99.90;;;;;;5029753;28;20210;-76
2023/03/28 06:28:30;;;;;;;11.60;9.17;;;5.70;99.90;;;;;;5019873;28;20523;-75
2023/03/28 06:30:55;;;;;;;10.63;8.63;;;5.70;99.90;;;;;;5020840;28;20429;-75
2023/03/28 06:33:21;;;;;;;13.00;10.30;;;5.80;99.90;;;;;;5031689;28;20166;-75
2023/03/28 06:35:47;;;;;;;10.20;9.10;;;5.90;99.90;;;;;;5020204;28;20408;-75
2023/03/28 06:38:12;;;;;;;13.67;8.70;;;5.90;99.90;;;;;;5031945;28;20171;-78
2023/03/28 06:40:38;;;;;;;9.90;8.77;;;6.00;99.90;;;;;;5023240;28;20178;-75
2023/03/28 06:43:04;;;;;;;9.90;8.87;;;6.00;99.90;;;;;;5047861;28;20288;-74
2023/03/28 06:45:30;;;;;;;13.90;9.00;;;6.10;99.90;;;;;;5053213;28;20177;-74
2023/03/28 06:47:55;;;;;;;9.87;8.97;;;6.10;99.90;;;;;;5052868;28;20471;-74
2023/03/28 06:50:21;;;;;;;9.83;8.60;;;6.10;99.90;;;;;;5052603;28;20633;-74
2023/03/28 06:52:47;;;;;;;11.40;7.97;;;6.10;99.90;;;;;;5062812;28;20199;-74
2023/03/28 06:55:12;;;;;;;11.23;9.20;;;6.20;99.90;;;;;;5070715;28;20168;-77
2023/03/28 06:57:38;;;;;;;9.57;7.70;;;6.30;99.90;;;;;;5052951;28;20177;-74
2023/03/28 07:00:06;;;;;;;9.83;8.87;;;6.40;99.90;;;;;;5056522;28;20178;-77
2023/03/28 07:02:34;;;;;;;9.07;8.03;;;6.50;99.90;;;;;;5073482;28;20252;-75
2023/03/28 07:05:00;;;;;;;9.47;8.00;;;6.70;99.90;;;;;;5056423;28;20735;-75
2023/03/28 07:07:26;;;;;;;13.90;8.17;;;6.70;99.90;;;;;;5050827;28;20463;-75
2023/03/28 07:09:53;;;;;;;11.70;7.40;;;6.80;99.90;;;;;;5045688;28;20252;-74
2023/03/28 07:12:19;;;;;;;9.60;6.77;;;6.80;99.90;;;;;;5044116;28;20651;-75
2023/03/28 07:14:46;;;;;;;12.10;7.03;;;6.90;99.90;;;;;;5051460;28;20411;-75
2023/03/28 07:17:12;;;;;;;10.43;6.90;;;7.00;99.90;;;;;;5051110;28;20438;-76
2023/03/28 07:19:38;;;;;;;13.80;7.07;;;7.00;99.90;;;;;;5053823;28;20489;-76
2023/03/28 07:22:04;;;;;;;7.70;6.90;;;7.10;99.90;;;;;;5037484;28;20506;-76
2023/03/28 07:24:30;;;;;;;8.40;6.60;;;7.20;99.90;;;;;;5047483;28;20431;-76
2023/03/28 07:26:55;;;;;;;10.27;7.67;;;7.20;99.90;;;;;;5040965;28;20199;-76
2023/03/28 07:29:21;;;;;;;12.03;7.23;;;7.30;99.90;;;;;;5049952;28;20450;-75
2023/03/28 07:31:47;;;;;;;13.60;6.30;;;7.40;99.90;;;;;;5048140;28;20179;-76
2023/03/28 07:34:17;;;;;;;8.30;7.40;;;7.40;99.90;;;;;;5032010;28;20195;-76
2023/03/28 07:36:43;;;;;;;8.50;7.00;;;7.50;99.90;;;;;;5033774;28;20153;-76
2023/03/28 07:39:09;;;;;;;6.57;5.70;;;7.60;99.90;;;;;;5035931;28;20414;-75
2023/03/28 07:41:35;;;;;;;8.33;6.17;;;7.60;99.90;;;;;;5046376;28;20563;-75
2023/03/28 07:44:00;;;;;;;14.90;7.23;;;7.70;99.90;;;;;;5042124;28;20267;-76
2023/03/28 07:46:26;;;;;;;7.87;6.40;;;7.80;99.90;;;;;;5049196;28;20458;-76
2023/03/28 07:48:54;;;;;;;8.10;6.30;;;7.80;99.80;;;;;;5036798;28;20269;-76
2023/03/28 07:51:20;;;;;;;10.07;6.20;;;7.80;99.90;;;;;;5037112;28;20485;-80
2023/03/28 07:53:45;;;;;;;8.67;6.20;;;7.90;99.80;;;;;;5052028;28;20412;-78
2023/03/28 07:56:11;;;;;;;8.63;6.93;;;8.00;99.20;;;;;;5044321;28;20215;-76
2023/03/28 07:58:38;;;;;;;8.80;5.97;;;8.00;99.20;;;;;;5032742;28;20192;-78
2023/03/28 08:01:06;;;;;;;11.50;6.93;;;8.00;99.40;;;;;;5032050;28;20757;-80
2023/03/28 08:03:32;;;;;;;7.10;6.30;;;8.00;99.20;;;;;;5033374;28;20498;-78
2023/03/28 08:06:06;;;;;;;9.00;7.30;;;8.10;99.10;;;;;;5015032;28;20512;-78
2023/03/28 08:08:32;;;;;;;9.27;5.97;;;8.10;99.00;;;;;;5032515;28;20165;-79
2023/03/28 08:10:58;;;;;;;7.93;5.90;;;8.20;98.50;;;;;;5041659;28;20530;-81
2023/03/28 08:13:24;;;;;;;16.20;5.70;;;8.30;99.10;;;;;;5045309;28;20174;-80
2023/03/28 08:15:51;;;;;;;6.83;6.03;;;8.30;98.10;;;;;;5041407;28;20407;-78
2023/03/28 08:18:20;;;;;;;7.77;6.10;;;8.40;98.00;;;;;;5036030;28;20428;-81
2023/03/28 08:20:47;;;;;;;7.73;5.20;;;8.40;98.10;;;;;;5033898;28;20435;-80
2023/03/28 08:23:13;;;;;;;9.30;6.00;;;8.50;98.00;;;;;;5051877;28;20415;-81
2023/03/28 08:25:39;;;;;;;9.77;5.93;;;8.50;98.10;;;;;;5083620;28;20475;-80
2023/03/28 08:28:05;;;;;;;6.60;5.00;;;8.60;97.10;;;;;;5078633;28;20193;-80
2023/03/28 08:30:31;;;;;;;5.00;4.60;;;8.70;96.90;;;;;;5070979;28;20590;-81
2023/03/28 08:32:57;;;;;;;9.03;4.83;;;8.70;96.10;;;;;;5071573;28;20494;-80
2023/03/28 08:35:23;;;;;;;5.77;5.20;;;8.80;96.30;;;;;;5073379;28;20411;-81
2023/03/28 08:37:52;;;;;;;4.90;4.20;;;8.90;95.50;;;;;;5063626;28;20235;-80
2023/03/28 08:40:19;;;;;;;8.63;4.93;;;8.90;95.70;;;;;;5051773;28;20404;-81
2023/03/28 08:43:03;;;;;;;8.20;4.47;;;8.90;95.30;;;;;;5052821;28;20476;-80
2023/03/28 08:45:41;;;;;;;5.13;4.23;;;8.90;95.00;;;;;;5027444;28;20425;-80
2023/03/28 08:48:10;;;;;;;8.53;5.53;;;8.90;94.20;;;;;;5017338;28;20482;-81
2023/03/28 08:51:05;;;;;;;8.80;5.37;;;8.90;94.50;;;;;;5012203;28;20905;-81
2023/03/28 08:53:37;;;;;;;7.10;5.90;;;8.90;94.70;;;;;;5001237;28;20439;-79
2023/03/28 08:56:08;;;;;;;7.90;4.30;;;8.90;94.80;;;;;;5017173;28;20759;-78
2023/03/28 08:58:57;;;;;;;5.03;3.70;;;8.90;94.00;;;;;;5023659;28;20406;-79
2023/03/28 09:01:28;;;;;;;5.47;3.83;;;9.00;94.40;;;;;;5028465;28;20427;-79
2023/03/28 09:03:53;;;;;;;5.87;4.43;;;9.10;95.00;;;;;;5015150;28;20394;-79
2023/03/28 09:06:28;;;;;;;4.97;4.20;;;9.20;94.70;;;;;;5021392;28;20455;-78
2023/03/28 09:08:57;;;;;;;5.67;4.10;;;9.20;93.60;;;;;;5018385;28;20194;-80
2023/03/28 09:11:35;;;;;;;4.00;3.70;;;9.30;92.40;;;;;;5022216;28;20448;-80
2023/03/28 09:14:32;;;;;;;3.77;3.47;;;9.30;92.80;;;;;;5029006;28;20424;-80
2023/03/28 09:17:11;;;;;;;3.57;3.37;;;9.30;91.50;;;;;;4982890;28;20513;-79
2023/03/28 09:19:51;;;;;;;7.47;3.00;;;9.50;90.70;;;;;;5024069;28;20764;-80
2023/03/28 09:22:39;;;;;;;4.40;3.00;;;9.40;89.70;;;;;;5032004;28;20408;-79
2023/03/28 09:25:12;;;;;;;5.90;2.80;;;9.30;90.10;;;;;;5032410;28;20400;-79
2023/03/28 09:27:49;;;;;;;3.43;2.57;;;9.30;91.00;;;;;;5030179;28;20465;-80
2023/03/28 09:30:41;;;;;;;3.00;2.70;;;9.30;91.00;;;;;;4997865;28;20548;-79
2023/03/28 09:33:18;;;;;;;3.80;2.70;;;9.30;90.30;;;;;;5012754;28;20734;-79
2023/03/28 09:35:47;;;;;;;4.87;2.77;;;9.40;90.00;;;;;;5012308;28;20752;-80
2023/03/28 09:38:20;;;;;;;5.77;3.03;;;9.40;89.80;;;;;;5012567;28;20400;-80
2023/03/28 09:40:48;;;;;;;5.57;2.80;;;9.40;89.50;;;;;;5014997;28;20501;-80
2023/03/28 09:43:33;;;;;;;4.07;2.50;;;9.50;87.90;;;;;;5022656;28;21027;-80
2023/03/28 09:46:05;;;;;;;6.43;2.40;;;9.50;86.30;;;;;;5033246;28;20433;-80
2023/03/28 09:48:36;;;;;;;4.40;3.00;;;9.60;85.80;;;;;;5035332;28;20392;-80
2023/03/28 09:51:04;;;;;;;2.87;2.60;;;9.60;87.80;;;;;;5035950;28;20396;-81
2023/03/28 09:53:35;;;;;;;3.93;2.80;;;9.60;86.90;;;;;;5035082;28;20420;-82
2023/03/28 09:56:22;;;;;;;5.20;2.40;;;9.60;86.20;;;;;;5017784;28;20439;-81
2023/03/28 09:58:51;;;;;;;4.63;3.00;;;9.60;87.40;;;;;;5016819;28;20432;-79
2023/03/28 10:01:48;;;;;;;2.70;2.20;;;9.60;84.90;;;;;;5012780;28;20567;-78
2023/03/28 10:04:35;;;;;;;4.47;2.50;;;9.70;82.00;;;;;;5006092;28;20943;-80
2023/03/28 10:07:29;;;;;;;2.83;2.73;;;9.80;80.10;;;;;;5016207;28;20964;-81
2023/03/28 10:09:57;;;;;;;4.80;2.90;;;9.90;80.60;;;;;;5006019;28;20438;-80
2023/03/28 10:12:32;;;;;;;4.30;3.40;;;9.90;91.50;;;;;;5011344;28;20440;-81
2023/03/28 10:14:58;;;;;;;5.37;3.30;;;10.20;90.90;;;;;;5004157;28;20433;-80
2023/03/28 10:17:42;;;;;;;3.83;3.50;;;10.60;91.10;;;;;;5010794;28;20770;-81
2023/03/28 10:20:15;;;;;;;2.50;2.30;;;11.10;85.10;;;;;;5027616;28;20185;-78
2023/03/28 10:22:45;;;;;;;4.10;2.90;;;11.50;99.90;;;;;;5016891;28;20933;-75
2023/03/28 10:25:19;;;;;;;3.30;2.60;;;12.10;99.30;;;;;;5026762;28;20772;-76
2023/03/28 10:27:50;;;;;;;3.10;2.73;;;12.50;86.50;;;;;;5024268;28;20456;-75
2023/03/28 10:30:19;;;;;;;2.33;2.10;;;12.30;71.70;;;;;;5026033;28;20425;-75
2023/03/28 10:33:08;;;;;;;2.43;2.30;;;12.10;68.60;;;;;;5016620;28;20749;-75
2023/03/28 10:35:34;;;;;;;2.90;2.60;;;11.80;66.30;;;;;;5034166;28;20408;-75
2023/03/28 10:38:03;;;;;;;3.07;2.87;;;11.80;66.50;;;;;;5033661;28;20427;-75
2023/03/28 10:40:30;;;;;;;6.93;3.13;;;11.70;68.10;;;;;;5024178;28;20433;-75
2023/03/28 10:42:58;;;;;;;3.83;2.80;;;11.80;72.80;;;;;;5041318;28;20489;-76
2023/03/28 10:45:31;;;;;;;3.17;3.07;;;11.90;72.20;;;;;;5016228;28;20409;-78
2023/03/28 10:47:59;;;;;;;3.57;3.17;;;11.90;67.10;;;;;;5033220;28;20441;-76
2023/03/28 10:50:35;;;;;;;3.80;2.53;;;12.00;65.50;;;;;;5032481;28;20433;-76
2023/03/28 10:53:17;;;;;;;2.57;2.37;;;11.80;64.30;;;;;;5034742;28;20412;-76
2023/03/28 10:56:05;;;;;;;3.37;2.40;;;11.70;64.60;;;;;;5035675;28;20515;-76
2023/03/28 10:58:44;;;;;;;2.70;2.50;;;11.70;64.90;;;;;;5049198;28;20817;-76
2023/03/28 11:01:19;;;;;;;5.23;2.60;;;11.60;63.20;;;;;;5053435;28;20459;-76
2023/03/28 11:03:48;;;;;;;1.70;1.60;;;11.60;62.60;;;;;;5051744;28;20435;-76
2023/03/28 11:06:16;;;;;;;2.13;1.53;;;11.60;62.50;;;;;;5052693;28;20802;-76
2023/03/28 11:09:05;;;;;;;5.23;2.60;;;11.60;63.00;;;;;;5053443;28;20722;-77
2023/03/28 11:12:18;;;;;;;3.83;3.03;;;11.70;65.70;;;;;;5053897;28;20570;-77
2023/03/28 11:14:59;;;;;;;3.10;2.90;;;11.80;65.50;;;;;;5004445;28;20481;-75
2023/03/28 11:17:54;;;;;;;3.17;2.87;;;12.00;66.70;;;;;;5040818;28;20756;-78
2023/03/28 11:20:41;;;;;;;5.13;2.63;;;12.10;67.20;;;;;;5053281;28;20424;-75
2023/03/28 11:23:54;;;;;;;4.30;2.60;;;12.20;66.40;;;;;;5036701;28;20405;-75
2023/03/28 11:26:30;;;;;;;3.00;2.80;;;12.50;65.80;;;;;;5027566;28;20943;-75
2023/03/28 11:29:21;;;;;;;4.80;2.40;;;12.70;66.10;;;;;;5040189;28;20427;-74
2023/03/28 11:32:01;;;;;;;3.80;2.87;;;12.90;65.50;;;;;;5053069;28;20737;-75
2023/03/28 11:34:34;;;;;;;5.03;2.90;;;13.10;64.50;;;;;;5053461;28;20417;-78
2023/03/28 11:37:14;;;;;;;3.03;2.80;;;13.10;61.60;;;;;;5053796;28;20487;-74
2023/03/28 11:39:43;;;;;;;6.30;2.83;;;13.10;61.30;;;;;;5052454;28;20396;-76
2023/03/28 11:42:17;;;;;;;3.13;2.77;;;13.00;59.70;;;;;;5042820;28;20611;-76
2023/03/28 11:45:19;;;;;;;2.63;2.50;;;13.10;64.00;;;;;;5040860;28;20848;-77
2023/03/28 11:47:52;;;;;;;2.77;2.60;;;13.20;61.30;;;;;;5020939;28;20896;-76
2023/03/28 11:50:27;;;;;;;2.77;2.50;;;13.20;61.90;;;;;;5037358;28;20807;-76
2023/03/28 11:53:22;;;;;;;3.57;3.23;;;13.30;61.30;;;;;;5052944;28;20829;-75
2023/03/28 11:56:05;;;;;;;2.70;2.60;;;13.30;58.70;;;;;;5020967;28;20430;-75
2023/03/28 11:58:35;;;;;;;4.53;3.10;;;12.80;55.40;;;;;;5033654;28;20450;-77
2023/03/28 12:01:03;;;;;;;3.17;2.97;;;12.70;57.50;;;;;;5033760;28;20443;-77
2023/03/28 12:03:59;;;;;;;3.30;3.10;;;12.80;58.50;;;;;;5047789;28;20930;-79
2023/03/28 12:06:43;;;;;;;3.00;2.47;;;13.00;58.40;;;;;;5032269;28;20450;-78
2023/03/28 12:09:17;;;;;;;3.60;2.77;;;13.00;57.10;;;;;;5040101;28;20418;-79
2023/03/28 12:12:16;;;;;;;2.90;2.70;;;13.00;58.10;;;;;;5034683;28;20434;-78
2023/03/28 12:14:47;;;;;;;4.60;2.57;;;13.10;56.80;;;;;;5041470;28;20819;-78
2023/03/28 12:17:19;;;;;;;3.60;3.30;;;13.40;57.80;;;;;;5032375;28;20425;-79
2023/03/28 12:19:47;;;;;;;2.93;2.73;;;13.50;57.10;;;;;;5025353;28;20477;-79
2023/03/28 12:22:21;;;;;;;3.93;3.57;;;13.70;58.10;;;;;;5032485;28;20404;-79
2023/03/28 12:24:59;;;;;;;4.90;3.23;;;13.70;57.70;;;;;;5032515;28;20412;-79
2023/03/28 12:27:56;;;;;;;3.53;3.23;;;13.80;57.80;;;;;;5015992;28;20455;-80
2023/03/28 12:30:44;;;;;;;8.37;3.43;;;13.70;57.30;;;;;;5015741;28;20427;-80
2023/03/28 12:33:32;;;;;;;4.47;3.63;;;13.50;56.70;;;;;;5031954;28;20812;-79
2023/03/28 12:36:17;;;;;;;3.73;3.43;;;13.30;58.90;;;;;;5039436;28;20427;-79
2023/03/28 12:39:00;;;;;;;4.10;3.77;;;13.20;58.80;;;;;;5051564;28;20906;-80
2023/03/28 12:41:31;;;;;;;5.07;4.70;;;13.00;57.80;;;;;;5051099;28;20460;-80
2023/03/28 12:44:23;;;;;;;3.93;3.63;;;13.00;57.70;;;;;;5053558;28;20402;-80
2023/03/28 12:46:54;;;;;;;3.27;2.97;;;13.10;58.50;;;;;;5025583;28;20522;-80
2023/03/28 12:49:38;;;;;;;3.50;3.20;;;12.90;57.90;;;;;;5031790;28;20429;-80
2023/03/28 12:52:06;;;;;;;3.37;2.80;;;13.00;60.10;;;;;;5041274;28;20434;-81
2023/03/28 12:54:34;;;;;;;3.53;3.30;;;13.10;67.40;;;;;;5051125;28;20415;-81
2023/03/28 12:57:13;;;;;;;3.70;3.40;;;13.20;60.60;;;;;;5051743;28;20952;-80
2023/03/28 12:59:40;;;;;;;3.30;3.10;;;13.10;59.00;;;;;;5034648;28;20451;-80
2023/03/28 13:02:30;;;;;;;3.20;3.00;;;12.60;56.40;;;;;;5053066;28;20750;-78
2023/03/28 13:05:12;;;;;;;2.97;2.77;;;12.60;57.30;;;;;;5052058;28;20487;-79
2023/03/28 13:07:57;;;;;;;4.10;2.87;;;12.40;56.30;;;;;;5034306;28;20960;-79
2023/03/28 13:10:44;;;;;;;3.10;2.80;;;12.30;57.40;;;;;;5041418;28;20433;-79
2023/03/28 13:13:34;;;;;;;2.40;2.20;;;12.40;58.20;;;;;;5043184;28;20452;-79
2023/03/28 13:16:05;;;;;;;2.10;1.90;;;12.40;56.20;;;;;;5038204;28;20429;-78
2023/03/28 13:18:33;;;;;;;3.83;2.60;;;12.50;56.30;;;;;;5051450;28;20427;-79
2023/03/28 13:21:03;;;;;;;3.33;2.60;;;12.50;55.70;;;;;;5049319;28;20417;-78